sensor_id;sensor_type;location;lat;lon;timestamp;temperature;humidity
33994;DHT22;20673;48.980;8.138;2023-12-22T00:00:33;10.30;55.70
33994;DHT22;20673;48.980;8.138;2023-12-22T00:02:59;10.30;22.10
33994;DHT22;20673;48.980;8.138;2023-12-22T00:05:26;10.30;7.80
33994;DHT22;20673;48.980;8.138;2023-12-22T00:07:52;10.30;7.60
33994;DHT22;20673;48.980;8.138;2023-12-22T00:10:18;10.20;7.80
33994;DHT22;20673;48.980;8.138;2023-12-22T00:12:44;10.20;1.00
33994;DHT22;20673;48.980;8.138;2023-12-22T00:15:10;10.20;1.00
33994;DHT22;20673;48.980;8.138;2023-12-22T00:17:36;10.20;1.00
33994;DHT22;20673;48.980;8.138;2023-12-22T00:20:03;10.20;1.00
33994;DHT22;20673;48.980;8.138;2023-12-22T00:22:29;10.20;1.00
33994;DHT22;20673;48.980;8.138;2023-12-22T00:24:56;10.20;1.00
33994;DHT22;20673;48.980;8.138;2023-12-22T00:27:22;10.20;1.00
33994;DHT22;20673;48.980;8.138;2023-12-22T00:29:48;10.10;1.00
33994;DHT22;20673;48.980;8.138;2023-12-22T00:32:14;10.10;2.00
33994;DHT22;20673;48.980;8.138;2023-12-22T00:34:40;10.10;1.50
33994;DHT22;20673;48.980;8.138;2023-12-22T00:37:06;10.00;1.00
33994;DHT22;20673;48.980;8.138;2023-12-22T00:39:32;10.00;1.00
33994;DHT22;20673;48.980;8.138;2023-12-22T00:41:58;10.00;1.00
33994;DHT22;20673;48.980;8.138;2023-12-22T00:44:24;9.90;1.00
33994;DHT22;20673;48.980;8.138;2023-12-22T00:46:52;9.90;1.00
33994;DHT22;20673;48.980;8.138;2023-12-22T00:49:18;9.90;1.00
33994;DHT22;20673;48.980;8.138;2023-12-22T00:51:46;9.90;1.00
33994;DHT22;20673;48.980;8.138;2023-12-22T00:54:13;9.90;1.00
33994;DHT22;20673;48.980;8.138;2023-12-22T00:56:39;9.90;1.00
33994;DHT22;20673;48.980;8.138;2023-12-22T00:59:05;10.00;1.00
33994;DHT22;20673;48.980;8.138;2023-12-22T01:01:31;10.00;1.00
33994;DHT22;20673;48.980;8.138;2023-12-22T01:03:57;9.90;1.00
33994;DHT22;20673;48.980;8.138;2023-12-22T01:06:23;9.90;1.00
33994;DHT22;20673;48.980;8.138;2023-12-22T01:08:50;9.80;1.00
33994;DHT22;20673;48.980;8.138;2023-12-22T01:11:16;9.70;1.00
33994;DHT22;20673;48.980;8.138;2023-12-22T01:13:43;9.80;1.00
33994;DHT22;20673;48.980;8.138;2023-12-22T01:16:10;9.70;1.00
33994;DHT22;20673;48.980;8.138;2023-12-22T01:18:36;9.70;1.00
33994;DHT22;20673;48.980;8.138;2023-12-22T01:21:02;9.60;1.00
33994;DHT22;20673;48.980;8.138;2023-12-22T01:23:28;9.60;1.00
33994;DHT22;20673;48.980;8.138;2023-12-22T01:25:54;9.50;1.00
33994;DHT22;20673;48.980;8.138;2023-12-22T01:28:20;9.50;1.00
33994;DHT22;20673;48.980;8.138;2023-12-22T01:30:47;9.50;1.00
33994;DHT22;20673;48.980;8.138;2023-12-22T01:33:13;9.50;1.00
33994;DHT22;20673;48.980;8.138;2023-12-22T01:35:39;9.50;1.00
33994;DHT22;20673;48.980;8.138;2023-12-22T01:38:05;9.40;1.00
33994;DHT22;20673;48.980;8.138;2023-12-22T01:40:31;9.30;1.00
33994;DHT22;20673;48.980;8.138;2023-12-22T01:42:57;9.30;1.00
33994;DHT22;20673;48.980;8.138;2023-12-22T01:45:23;9.40;1.00
33994;DHT22;20673;48.980;8.138;2023-12-22T01:47:49;9.40;1.00
33994;DHT22;20673;48.980;8.138;2023-12-22T01:50:16;9.40;1.00
33994;DHT22;20673;48.980;8.138;2023-12-22T01:52:43;9.40;1.00
33994;DHT22;20673;48.980;8.138;2023-12-22T01:55:11;9.40;1.00
33994;DHT22;20673;48.980;8.138;2023-12-22T01:57:39;9.40;1.00
33994;DHT22;20673;48.980;8.138;2023-12-22T02:00:08;9.30;1.00
33994;DHT22;20673;48.980;8.138;2023-12-22T02:02:35;9.30;1.00
33994;DHT22;20673;48.980;8.138;2023-12-22T02:05:01;9.30;1.00
33994;DHT22;20673;48.980;8.138;2023-12-22T02:07:28;9.30;1.00
33994;DHT22;20673;48.980;8.138;2023-12-22T02:09:54;9.30;1.00
33994;DHT22;20673;48.980;8.138;2023-12-22T02:12:21;9.20;1.00
33994;DHT22;20673;48.980;8.138;2023-12-22T02:14:47;9.20;1.00
33994;DHT22;20673;48.980;8.138;2023-12-22T02:17:33;9.20;1.00
33994;DHT22;20673;48.980;8.138;2023-12-22T02:19:58;9.20;1.00
33994;DHT22;20673;48.980;8.138;2023-12-22T02:22:24;9.20;1.00
33994;DHT22;20673;48.980;8.138;2023-12-22T02:24:50;9.20;1.00
33994;DHT22;20673;48.980;8.138;2023-12-22T02:27:46;9.20;1.00
33994;DHT22;20673;48.980;8.138;2023-12-22T02:30:38;9.20;1.00
33994;DHT22;20673;48.980;8.138;2023-12-22T02:33:07;9.20;1.10
33994;DHT22;20673;48.980;8.138;2023-12-22T02:35:37;9.10;15.40
33994;DHT22;20673;48.980;8.138;2023-12-22T02:38:07;9.00;22.60
33994;DHT22;20673;48.980;8.138;2023-12-22T02:40:34;9.00;8.90
33994;DHT22;20673;48.980;8.138;2023-12-22T02:43:02;9.00;1.00
33994;DHT22;20673;48.980;8.138;2023-12-22T02:45:30;9.00;1.00
33994;DHT22;20673;48.980;8.138;2023-12-22T02:47:56;9.10;1.00
33994;DHT22;20673;48.980;8.138;2023-12-22T02:50:22;9.10;1.00
33994;DHT22;20673;48.980;8.138;2023-12-22T02:52:48;9.10;1.00
33994;DHT22;20673;48.980;8.138;2023-12-22T02:55:14;9.20;1.00
33994;DHT22;20673;48.980;8.138;2023-12-22T02:57:40;9.10;1.00
33994;DHT22;20673;48.980;8.138;2023-12-22T03:00:07;9.20;1.00
33994;DHT22;20673;48.980;8.138;2023-12-22T03:02:33;9.20;1.00
33994;DHT22;20673;48.980;8.138;2023-12-22T03:04:59;9.20;1.00
33994;DHT22;20673;48.980;8.138;2023-12-22T03:07:25;9.30;1.00
33994;DHT22;20673;48.980;8.138;2023-12-22T03:09:51;9.30;1.00
33994;DHT22;20673;48.980;8.138;2023-12-22T03:12:17;9.20;1.00
33994;DHT22;20673;48.980;8.138;2023-12-22T03:14:43;9.20;1.00
33994;DHT22;20673;48.980;8.138;2023-12-22T03:17:09;9.20;7.20
33994;DHT22;20673;48.980;8.138;2023-12-22T03:19:36;9.20;7.20
33994;DHT22;20673;48.980;8.138;2023-12-22T03:22:02;9.20;16.50
33994;DHT22;20673;48.980;8.138;2023-12-22T03:24:29;9.10;26.40
33994;DHT22;20673;48.980;8.138;2023-12-22T03:26:55;9.20;19.80
33994;DHT22;20673;48.980;8.138;2023-12-22T03:29:21;9.20;24.40
33994;DHT22;20673;48.980;8.138;2023-12-22T03:31:47;9.20;8.90
33994;DHT22;20673;48.980;8.138;2023-12-22T03:34:13;9.20;13.50
33994;DHT22;20673;48.980;8.138;2023-12-22T03:36:39;9.20;7.80
33994;DHT22;20673;48.980;8.138;2023-12-22T03:39:05;9.30;1.00
33994;DHT22;20673;48.980;8.138;2023-12-22T03:41:32;9.30;1.00
33994;DHT22;20673;48.980;8.138;2023-12-22T03:43:58;9.40;1.00
33994;DHT22;20673;48.980;8.138;2023-12-22T03:46:24;9.40;8.50
33994;DHT22;20673;48.980;8.138;2023-12-22T03:48:50;9.30;19.10
33994;DHT22;20673;48.980;8.138;2023-12-22T03:51:17;9.20;44.50
33994;DHT22;20673;48.980;8.138;2023-12-22T03:53:43;9.10;86.50
33994;DHT22;20673;48.980;8.138;2023-12-22T03:56:09;8.90;95.20
33994;DHT22;20673;48.980;8.138;2023-12-22T03:58:36;8.90;99.90
33994;DHT22;20673;48.980;8.138;2023-12-22T04:01:03;8.80;99.90
33994;DHT22;20673;48.980;8.138;2023-12-22T04:03:29;8.70;99.90
33994;DHT22;20673;48.980;8.138;2023-12-22T04:05:55;8.70;99.90
33994;DHT22;20673;48.980;8.138;2023-12-22T04:08:21;8.70;99.90
33994;DHT22;20673;48.980;8.138;2023-12-22T04:10:47;8.60;99.90
33994;DHT22;20673;48.980;8.138;2023-12-22T04:13:14;8.60;99.90
33994;DHT22;20673;48.980;8.138;2023-12-22T04:15:40;8.60;99.90
33994;DHT22;20673;48.980;8.138;2023-12-22T04:18:06;8.60;99.90
33994;DHT22;20673;48.980;8.138;2023-12-22T04:20:32;8.60;99.90
33994;DHT22;20673;48.980;8.138;2023-12-22T04:22:58;8.60;99.90
33994;DHT22;20673;48.980;8.138;2023-12-22T04:25:24;8.60;99.60
33994;DHT22;20673;48.980;8.138;2023-12-22T04:27:52;8.60;90.70
33994;DHT22;20673;48.980;8.138;2023-12-22T04:30:18;8.70;86.70
33994;DHT22;20673;48.980;8.138;2023-12-22T04:32:44;8.70;86.90
33994;DHT22;20673;48.980;8.138;2023-12-22T04:35:10;8.80;56.70
33994;DHT22;20673;48.980;8.138;2023-12-22T04:37:36;8.80;58.80
33994;DHT22;20673;48.980;8.138;2023-12-22T04:40:03;8.80;74.70
33994;DHT22;20673;48.980;8.138;2023-12-22T04:42:29;8.80;60.30
33994;DHT22;20673;48.980;8.138;2023-12-22T04:44:55;8.70;81.00
33994;DHT22;20673;48.980;8.138;2023-12-22T04:47:22;8.70;81.20
33994;DHT22;20673;48.980;8.138;2023-12-22T04:49:48;8.80;84.90
33994;DHT22;20673;48.980;8.138;2023-12-22T04:52:14;8.70;88.10
33994;DHT22;20673;48.980;8.138;2023-12-22T04:54:40;8.80;80.90
33994;DHT22;20673;48.980;8.138;2023-12-22T04:57:06;8.90;73.30
33994;DHT22;20673;48.980;8.138;2023-12-22T04:59:32;8.80;73.80
33994;DHT22;20673;48.980;8.138;2023-12-22T05:01:58;8.80;73.90
33994;DHT22;20673;48.980;8.138;2023-12-22T05:04:24;8.90;64.60
33994;DHT22;20673;48.980;8.138;2023-12-22T05:06:51;8.90;67.60
33994;DHT22;20673;48.980;8.138;2023-12-22T05:09:17;8.90;50.20
33994;DHT22;20673;48.980;8.138;2023-12-22T05:11:43;9.00;57.20
33994;DHT22;20673;48.980;8.138;2023-12-22T05:14:09;9.00;45.10
33994;DHT22;20673;48.980;8.138;2023-12-22T05:16:35;9.00;29.80
33994;DHT22;20673;48.980;8.138;2023-12-22T05:19:02;9.10;31.10
33994;DHT22;20673;48.980;8.138;2023-12-22T05:21:28;9.10;34.40
33994;DHT22;20673;48.980;8.138;2023-12-22T05:23:55;9.20;27.30
33994;DHT22;20673;48.980;8.138;2023-12-22T05:26:22;9.20;14.10
33994;DHT22;20673;48.980;8.138;2023-12-22T05:28:49;9.20;10.80
33994;DHT22;20673;48.980;8.138;2023-12-22T05:31:16;9.20;13.70
33994;DHT22;20673;48.980;8.138;2023-12-22T05:33:43;9.20;3.00
33994;DHT22;20673;48.980;8.138;2023-12-22T05:36:09;9.20;9.90
33994;DHT22;20673;48.980;8.138;2023-12-22T05:38:38;9.20;9.80
33994;DHT22;20673;48.980;8.138;2023-12-22T05:41:05;9.20;1.00
33994;DHT22;20673;48.980;8.138;2023-12-22T05:43:34;9.20;1.00
33994;DHT22;20673;48.980;8.138;2023-12-22T05:46:00;9.30;1.00
33994;DHT22;20673;48.980;8.138;2023-12-22T05:48:26;9.40;1.00
33994;DHT22;20673;48.980;8.138;2023-12-22T05:50:56;9.30;1.00
33994;DHT22;20673;48.980;8.138;2023-12-22T05:53:23;9.30;1.00
33994;DHT22;20673;48.980;8.138;2023-12-22T05:55:49;9.40;1.00
33994;DHT22;20673;48.980;8.138;2023-12-22T05:58:15;9.40;1.00
33994;DHT22;20673;48.980;8.138;2023-12-22T06:00:41;9.30;1.00
33994;DHT22;20673;48.980;8.138;2023-12-22T06:03:08;9.40;1.00
33994;DHT22;20673;48.980;8.138;2023-12-22T06:05:34;9.40;1.00
33994;DHT22;20673;48.980;8.138;2023-12-22T06:08:00;9.40;1.00
33994;DHT22;20673;48.980;8.138;2023-12-22T06:10:26;9.40;1.00
33994;DHT22;20673;48.980;8.138;2023-12-22T06:12:52;9.40;1.00
33994;DHT22;20673;48.980;8.138;2023-12-22T06:15:18;9.40;1.00
33994;DHT22;20673;48.980;8.138;2023-12-22T06:17:44;9.30;1.00
33994;DHT22;20673;48.980;8.138;2023-12-22T06:20:10;9.30;10.10
33994;DHT22;20673;48.980;8.138;2023-12-22T06:22:36;9.20;29.10
33994;DHT22;20673;48.980;8.138;2023-12-22T06:25:03;9.20;23.30
33994;DHT22;20673;48.980;8.138;2023-12-22T06:27:31;9.20;25.00
33994;DHT22;20673;48.980;8.138;2023-12-22T06:29:57;9.20;26.30
33994;DHT22;20673;48.980;8.138;2023-12-22T06:32:23;9.10;55.80
33994;DHT22;20673;48.980;8.138;2023-12-22T06:34:49;9.00;91.50
33994;DHT22;20673;48.980;8.138;2023-12-22T06:37:16;9.00;99.90
33994;DHT22;20673;48.980;8.138;2023-12-22T06:39:42;8.90;99.90
33994;DHT22;20673;48.980;8.138;2023-12-22T06:42:08;8.90;99.90
33994;DHT22;20673;48.980;8.138;2023-12-22T06:44:37;8.80;99.90
33994;DHT22;20673;48.980;8.138;2023-12-22T06:47:03;8.90;98.20
33994;DHT22;20673;48.980;8.138;2023-12-22T06:49:30;8.90;99.90
33994;DHT22;20673;48.980;8.138;2023-12-22T06:51:56;8.80;99.90
33994;DHT22;20673;48.980;8.138;2023-12-22T06:54:22;8.70;99.90
33994;DHT22;20673;48.980;8.138;2023-12-22T06:56:49;8.70;99.90
33994;DHT22;20673;48.980;8.138;2023-12-22T06:59:15;8.60;99.90
33994;DHT22;20673;48.980;8.138;2023-12-22T07:01:41;8.60;99.90
33994;DHT22;20673;48.980;8.138;2023-12-22T07:04:07;8.60;99.90
33994;DHT22;20673;48.980;8.138;2023-12-22T07:06:34;8.50;99.90
33994;DHT22;20673;48.980;8.138;2023-12-22T07:11:48;8.40;99.90
33994;DHT22;20673;48.980;8.138;2023-12-22T07:14:12;8.30;99.90
33994;DHT22;20673;48.980;8.138;2023-12-22T07:16:39;8.30;99.90
33994;DHT22;20673;48.980;8.138;2023-12-22T07:19:05;8.30;99.90
33994;DHT22;20673;48.980;8.138;2023-12-22T07:21:31;8.30;99.90
33994;DHT22;20673;48.980;8.138;2023-12-22T07:23:57;8.30;99.90
33994;DHT22;20673;48.980;8.138;2023-12-22T07:26:24;8.30;99.90
33994;DHT22;20673;48.980;8.138;2023-12-22T07:28:53;8.20;99.90
33994;DHT22;20673;48.980;8.138;2023-12-22T07:31:19;8.20;99.90
33994;DHT22;20673;48.980;8.138;2023-12-22T07:33:45;8.20;99.90
33994;DHT22;20673;48.980;8.138;2023-12-22T07:36:12;8.20;99.90
33994;DHT22;20673;48.980;8.138;2023-12-22T07:38:38;8.10;99.90
33994;DHT22;20673;48.980;8.138;2023-12-22T07:41:07;8.20;99.90
33994;DHT22;20673;48.980;8.138;2023-12-22T07:43:34;8.40;99.90
33994;DHT22;20673;48.980;8.138;2023-12-22T07:46:00;8.60;99.90
33994;DHT22;20673;48.980;8.138;2023-12-22T07:48:26;8.60;99.90
33994;DHT22;20673;48.980;8.138;2023-12-22T07:50:52;8.70;99.90
33994;DHT22;20673;48.980;8.138;2023-12-22T07:53:19;8.70;99.90
33994;DHT22;20673;48.980;8.138;2023-12-22T07:55:46;8.80;99.90
33994;DHT22;20673;48.980;8.138;2023-12-22T07:58:13;8.90;99.90
33994;DHT22;20673;48.980;8.138;2023-12-22T08:00:40;8.90;99.90
33994;DHT22;20673;48.980;8.138;2023-12-22T08:03:06;8.90;99.90
33994;DHT22;20673;48.980;8.138;2023-12-22T08:05:32;9.00;99.90
33994;DHT22;20673;48.980;8.138;2023-12-22T08:07:59;9.10;95.70
33994;DHT22;20673;48.980;8.138;2023-12-22T08:10:25;9.10;98.40
33994;DHT22;20673;48.980;8.138;2023-12-22T08:12:53;9.10;99.90
33994;DHT22;20673;48.980;8.138;2023-12-22T08:15:19;9.10;92.40
33994;DHT22;20673;48.980;8.138;2023-12-22T08:17:48;9.10;97.10
33994;DHT22;20673;48.980;8.138;2023-12-22T08:20:19;9.10;99.90
33994;DHT22;20673;48.980;8.138;2023-12-22T08:22:47;9.10;99.90
33994;DHT22;20673;48.980;8.138;2023-12-22T08:25:15;9.10;99.90
33994;DHT22;20673;48.980;8.138;2023-12-22T08:27:42;9.10;99.90
33994;DHT22;20673;48.980;8.138;2023-12-22T08:30:11;9.10;92.90
33994;DHT22;20673;48.980;8.138;2023-12-22T08:32:38;9.10;97.80
33994;DHT22;20673;48.980;8.138;2023-12-22T08:35:05;9.10;99.90
33994;DHT22;20673;48.980;8.138;2023-12-22T08:37:32;9.10;99.90
33994;DHT22;20673;48.980;8.138;2023-12-22T08:39:58;9.10;99.90
33994;DHT22;20673;48.980;8.138;2023-12-22T08:42:25;9.10;99.90
33994;DHT22;20673;48.980;8.138;2023-12-22T08:44:52;9.10;98.30
33994;DHT22;20673;48.980;8.138;2023-12-22T08:47:18;9.10;97.70
33994;DHT22;20673;48.980;8.138;2023-12-22T08:49:44;9.10;99.90
33994;DHT22;20673;48.980;8.138;2023-12-22T08:52:10;9.10;96.90
33994;DHT22;20673;48.980;8.138;2023-12-22T08:54:36;9.10;93.90
33994;DHT22;20673;48.980;8.138;2023-12-22T08:57:02;9.10;83.50
33994;DHT22;20673;48.980;8.138;2023-12-22T08:59:29;9.10;93.70
33994;DHT22;20673;48.980;8.138;2023-12-22T09:01:55;9.10;95.10
33994;DHT22;20673;48.980;8.138;2023-12-22T09:04:21;9.10;90.60
33994;DHT22;20673;48.980;8.138;2023-12-22T09:06:50;9.10;89.10
33994;DHT22;20673;48.980;8.138;2023-12-22T09:09:17;9.10;88.60
33994;DHT22;20673;48.980;8.138;2023-12-22T09:11:43;9.10;92.10
33994;DHT22;20673;48.980;8.138;2023-12-22T09:14:10;9.10;91.30
33994;DHT22;20673;48.980;8.138;2023-12-22T09:16:37;9.10;76.70
33994;DHT22;20673;48.980;8.138;2023-12-22T09:19:04;9.20;75.60
33994;DHT22;20673;48.980;8.138;2023-12-22T09:21:30;9.20;73.40
33994;DHT22;20673;48.980;8.138;2023-12-22T09:23:56;9.30;69.90
33994;DHT22;20673;48.980;8.138;2023-12-22T09:26:22;9.20;78.60
33994;DHT22;20673;48.980;8.138;2023-12-22T09:28:48;9.30;67.00
33994;DHT22;20673;48.980;8.138;2023-12-22T09:31:14;9.30;65.30
33994;DHT22;20673;48.980;8.138;2023-12-22T09:33:41;9.30;66.60
33994;DHT22;20673;48.980;8.138;2023-12-22T09:36:08;9.30;64.90
33994;DHT22;20673;48.980;8.138;2023-12-22T09:38:35;9.30;63.90
33994;DHT22;20673;48.980;8.138;2023-12-22T09:41:03;9.30;76.30
33994;DHT22;20673;48.980;8.138;2023-12-22T09:43:32;9.30;71.60
33994;DHT22;20673;48.980;8.138;2023-12-22T09:46:02;9.30;71.00
33994;DHT22;20673;48.980;8.138;2023-12-22T09:48:30;9.30;74.60
33994;DHT22;20673;48.980;8.138;2023-12-22T09:51:00;9.40;73.40
33994;DHT22;20673;48.980;8.138;2023-12-22T09:53:28;9.40;77.90
33994;DHT22;20673;48.980;8.138;2023-12-22T09:55:57;9.40;67.90
33994;DHT22;20673;48.980;8.138;2023-12-22T09:58:25;9.40;61.50
33994;DHT22;20673;48.980;8.138;2023-12-22T10:00:52;9.40;78.80
33994;DHT22;20673;48.980;8.138;2023-12-22T10:03:21;9.40;95.20
33994;DHT22;20673;48.980;8.138;2023-12-22T10:05:50;9.30;99.90
33994;DHT22;20673;48.980;8.138;2023-12-22T10:08:17;9.30;99.90
33994;DHT22;20673;48.980;8.138;2023-12-22T10:10:46;9.20;99.90
33994;DHT22;20673;48.980;8.138;2023-12-22T10:13:13;9.10;99.90
33994;DHT22;20673;48.980;8.138;2023-12-22T10:15:41;9.00;99.90
33994;DHT22;20673;48.980;8.138;2023-12-22T10:18:09;9.00;99.90
33994;DHT22;20673;48.980;8.138;2023-12-22T10:20:36;8.90;99.90
33994;DHT22;20673;48.980;8.138;2023-12-22T10:23:02;8.90;99.90
33994;DHT22;20673;48.980;8.138;2023-12-22T10:25:29;8.90;99.90
33994;DHT22;20673;48.980;8.138;2023-12-22T10:27:56;8.80;99.90
33994;DHT22;20673;48.980;8.138;2023-12-22T10:30:22;8.80;99.90
33994;DHT22;20673;48.980;8.138;2023-12-22T10:32:52;8.80;99.90
33994;DHT22;20673;48.980;8.138;2023-12-22T10:35:20;8.80;99.90
33994;DHT22;20673;48.980;8.138;2023-12-22T10:37:46;8.70;99.90
33994;DHT22;20673;48.980;8.138;2023-12-22T10:40:13;8.70;99.90
33994;DHT22;20673;48.980;8.138;2023-12-22T10:42:40;8.60;99.90
33994;DHT22;20673;48.980;8.138;2023-12-22T10:45:07;8.60;99.90
33994;DHT22;20673;48.980;8.138;2023-12-22T10:47:34;8.60;99.90
33994;DHT22;20673;48.980;8.138;2023-12-22T10:50:03;8.60;99.90
33994;DHT22;20673;48.980;8.138;2023-12-22T10:52:30;8.70;99.90
33994;DHT22;20673;48.980;8.138;2023-12-22T10:54:59;8.70;99.90
33994;DHT22;20673;48.980;8.138;2023-12-22T10:57:26;8.70;99.90
33994;DHT22;20673;48.980;8.138;2023-12-22T10:59:56;8.70;99.90
33994;DHT22;20673;48.980;8.138;2023-12-22T11:02:27;8.70;99.90
33994;DHT22;20673;48.980;8.138;2023-12-22T11:05:02;8.70;99.90
33994;DHT22;20673;48.980;8.138;2023-12-22T11:07:35;8.70;99.90
33994;DHT22;20673;48.980;8.138;2023-12-22T11:10:05;8.70;99.90
33994;DHT22;20673;48.980;8.138;2023-12-22T11:12:36;8.70;99.90
33994;DHT22;20673;48.980;8.138;2023-12-22T11:15:05;8.80;99.90
33994;DHT22;20673;48.980;8.138;2023-12-22T11:17:32;8.80;99.90
33994;DHT22;20673;48.980;8.138;2023-12-22T11:19:59;8.80;99.90
33994;DHT22;20673;48.980;8.138;2023-12-22T11:22:27;8.80;99.90
33994;DHT22;20673;48.980;8.138;2023-12-22T11:24:58;8.90;99.90
33994;DHT22;20673;48.980;8.138;2023-12-22T11:27:25;8.90;99.90
33994;DHT22;20673;48.980;8.138;2023-12-22T11:29:52;8.90;99.90
33994;DHT22;20673;48.980;8.138;2023-12-22T11:32:19;8.90;99.90
33994;DHT22;20673;48.980;8.138;2023-12-22T11:34:46;8.90;99.90
33994;DHT22;20673;48.980;8.138;2023-12-22T11:37:14;8.90;99.90
33994;DHT22;20673;48.980;8.138;2023-12-22T11:39:45;8.80;99.90
33994;DHT22;20673;48.980;8.138;2023-12-22T11:42:19;8.80;99.90
33994;DHT22;20673;48.980;8.138;2023-12-22T11:44:45;8.80;99.90
33994;DHT22;20673;48.980;8.138;2023-12-22T11:47:13;8.70;99.90
33994;DHT22;20673;48.980;8.138;2023-12-22T11:49:40;8.70;99.90
33994;DHT22;20673;48.980;8.138;2023-12-22T11:52:17;8.70;99.90
33994;DHT22;20673;48.980;8.138;2023-12-22T11:54:48;8.70;99.90
33994;DHT22;20673;48.980;8.138;2023-12-22T12:02:37;8.70;99.90
33994;DHT22;20673;48.980;8.138;2023-12-22T12:05:07;8.60;99.90
33994;DHT22;20673;48.980;8.138;2023-12-22T12:07:43;8.60;99.90
33994;DHT22;20673;48.980;8.138;2023-12-22T12:13:06;8.60;99.90
33994;DHT22;20673;48.980;8.138;2023-12-22T12:15:34;8.70;99.90
33994;DHT22;20673;48.980;8.138;2023-12-22T12:18:02;8.70;99.90
33994;DHT22;20673;48.980;8.138;2023-12-22T12:20:29;8.60;99.90
33994;DHT22;20673;48.980;8.138;2023-12-22T12:22:56;8.70;99.90
33994;DHT22;20673;48.980;8.138;2023-12-22T12:25:23;8.70;99.90
33994;DHT22;20673;48.980;8.138;2023-12-22T12:28:07;8.80;99.90
33994;DHT22;20673;48.980;8.138;2023-12-22T12:30:37;8.80;99.90
33994;DHT22;20673;48.980;8.138;2023-12-22T12:33:08;8.90;99.90
33994;DHT22;20673;48.980;8.138;2023-12-22T12:35:37;9.00;99.90
33994;DHT22;20673;48.980;8.138;2023-12-22T12:38:04;9.00;99.90
33994;DHT22;20673;48.980;8.138;2023-12-22T12:40:32;9.10;99.90
33994;DHT22;20673;48.980;8.138;2023-12-22T12:43:00;9.10;99.90
33994;DHT22;20673;48.980;8.138;2023-12-22T12:45:27;9.20;99.90
33994;DHT22;20673;48.980;8.138;2023-12-22T12:47:58;9.20;99.90
33994;DHT22;20673;48.980;8.138;2023-12-22T12:50:27;9.30;99.90
33994;DHT22;20673;48.980;8.138;2023-12-22T12:52:57;9.30;99.90
33994;DHT22;20673;48.980;8.138;2023-12-22T12:55:24;9.30;99.90
33994;DHT22;20673;48.980;8.138;2023-12-22T12:57:52;9.40;99.90
33994;DHT22;20673;48.980;8.138;2023-12-22T13:00:25;9.40;99.90
33994;DHT22;20673;48.980;8.138;2023-12-22T13:03:05;9.40;99.90
33994;DHT22;20673;48.980;8.138;2023-12-22T13:05:32;9.40;99.90
33994;DHT22;20673;48.980;8.138;2023-12-22T13:08:10;9.50;99.90
33994;DHT22;20673;48.980;8.138;2023-12-22T13:10:37;9.50;99.90
33994;DHT22;20673;48.980;8.138;2023-12-22T13:13:05;9.50;99.90
33994;DHT22;20673;48.980;8.138;2023-12-22T13:15:31;9.50;99.90
33994;DHT22;20673;48.980;8.138;2023-12-22T13:17:58;9.60;99.90
33994;DHT22;20673;48.980;8.138;2023-12-22T13:20:24;9.60;99.90
33994;DHT22;20673;48.980;8.138;2023-12-22T13:22:51;9.60;99.90
33994;DHT22;20673;48.980;8.138;2023-12-22T13:25:17;9.60;99.90
33994;DHT22;20673;48.980;8.138;2023-12-22T13:27:47;9.60;99.90
33994;DHT22;20673;48.980;8.138;2023-12-22T13:30:36;9.60;99.90
33994;DHT22;20673;48.980;8.138;2023-12-22T13:33:06;9.70;99.90
33994;DHT22;20673;48.980;8.138;2023-12-22T13:35:37;9.70;99.90
33994;DHT22;20673;48.980;8.138;2023-12-22T13:38:07;9.60;99.90
33994;DHT22;20673;48.980;8.138;2023-12-22T13:40:35;9.60;99.90
33994;DHT22;20673;48.980;8.138;2023-12-22T13:43:01;9.70;99.90
33994;DHT22;20673;48.980;8.138;2023-12-22T13:45:28;9.70;99.90
33994;DHT22;20673;48.980;8.138;2023-12-22T13:47:57;9.80;99.90
33994;DHT22;20673;48.980;8.138;2023-12-22T13:50:23;9.80;99.90
33994;DHT22;20673;48.980;8.138;2023-12-22T13:52:50;9.70;99.90
33994;DHT22;20673;48.980;8.138;2023-12-22T13:55:18;9.80;99.90
33994;DHT22;20673;48.980;8.138;2023-12-22T13:57:47;9.70;99.90
33994;DHT22;20673;48.980;8.138;2023-12-22T14:00:25;9.70;99.90
33994;DHT22;20673;48.980;8.138;2023-12-22T14:02:52;9.70;99.90
33994;DHT22;20673;48.980;8.138;2023-12-22T14:05:18;9.80;99.90
33994;DHT22;20673;48.980;8.138;2023-12-22T14:07:45;9.80;99.90
33994;DHT22;20673;48.980;8.138;2023-12-22T14:10:12;9.80;99.90
33994;DHT22;20673;48.980;8.138;2023-12-22T14:12:39;9.80;99.90
33994;DHT22;20673;48.980;8.138;2023-12-22T14:15:11;9.80;99.90
33994;DHT22;20673;48.980;8.138;2023-12-22T14:17:38;9.80;99.90
33994;DHT22;20673;48.980;8.138;2023-12-22T14:20:07;9.90;99.90
33994;DHT22;20673;48.980;8.138;2023-12-22T14:22:37;9.90;99.90
33994;DHT22;20673;48.980;8.138;2023-12-22T14:25:03;9.90;99.90
33994;DHT22;20673;48.980;8.138;2023-12-22T14:27:30;9.90;99.90
33994;DHT22;20673;48.980;8.138;2023-12-22T14:29:57;9.90;99.90
33994;DHT22;20673;48.980;8.138;2023-12-22T14:32:23;10.00;99.90
33994;DHT22;20673;48.980;8.138;2023-12-22T14:34:49;10.00;99.90
33994;DHT22;20673;48.980;8.138;2023-12-22T14:37:15;10.00;99.90
33994;DHT22;20673;48.980;8.138;2023-12-22T14:39:45;9.90;99.90
33994;DHT22;20673;48.980;8.138;2023-12-22T14:42:11;9.90;99.90
33994;DHT22;20673;48.980;8.138;2023-12-22T14:44:37;9.90;99.90
33994;DHT22;20673;48.980;8.138;2023-12-22T14:47:05;9.90;99.90
33994;DHT22;20673;48.980;8.138;2023-12-22T14:49:31;10.00;99.90
33994;DHT22;20673;48.980;8.138;2023-12-22T14:51:58;10.00;99.90
33994;DHT22;20673;48.980;8.138;2023-12-22T14:54:25;10.00;99.90
33994;DHT22;20673;48.980;8.138;2023-12-22T14:56:52;10.00;99.90
33994;DHT22;20673;48.980;8.138;2023-12-22T14:59:18;10.00;99.90
33994;DHT22;20673;48.980;8.138;2023-12-22T15:01:44;10.00;99.90
33994;DHT22;20673;48.980;8.138;2023-12-22T15:04:13;10.00;99.90
33994;DHT22;20673;48.980;8.138;2023-12-22T15:06:40;10.00;99.90
33994;DHT22;20673;48.980;8.138;2023-12-22T15:09:09;10.00;99.90
33994;DHT22;20673;48.980;8.138;2023-12-22T15:11:46;10.00;99.90
33994;DHT22;20673;48.980;8.138;2023-12-22T15:14:11;10.00;99.90
33994;DHT22;20673;48.980;8.138;2023-12-22T15:16:39;10.00;99.90
33994;DHT22;20673;48.980;8.138;2023-12-22T15:19:09;10.10;99.90
33994;DHT22;20673;48.980;8.138;2023-12-22T15:21:35;10.00;99.90
33994;DHT22;20673;48.980;8.138;2023-12-22T15:24:03;10.00;99.90
33994;DHT22;20673;48.980;8.138;2023-12-22T15:26:29;10.00;99.90
33994;DHT22;20673;48.980;8.138;2023-12-22T15:28:56;10.00;99.90
33994;DHT22;20673;48.980;8.138;2023-12-22T15:31:22;10.00;99.90
33994;DHT22;20673;48.980;8.138;2023-12-22T15:33:50;10.00;99.90
33994;DHT22;20673;48.980;8.138;2023-12-22T15:36:19;10.00;99.90
33994;DHT22;20673;48.980;8.138;2023-12-22T15:38:47;10.00;99.90
33994;DHT22;20673;48.980;8.138;2023-12-22T15:41:14;10.00;99.90
33994;DHT22;20673;48.980;8.138;2023-12-22T15:43:41;10.00;99.90
33994;DHT22;20673;48.980;8.138;2023-12-22T15:46:08;10.00;99.90
33994;DHT22;20673;48.980;8.138;2023-12-22T15:48:35;10.00;99.90
33994;DHT22;20673;48.980;8.138;2023-12-22T15:51:08;10.00;99.90
33994;DHT22;20673;48.980;8.138;2023-12-22T15:53:38;10.00;99.90
33994;DHT22;20673;48.980;8.138;2023-12-22T15:56:08;9.90;99.90
33994;DHT22;20673;48.980;8.138;2023-12-22T15:58:37;9.90;99.90